Time;durP1;ratioP1;P1;durP2;ratioP2;P2;SDS_P1;SDS_P2;PMS_P1;PMS_P2;Temp;Humidity;BMP_temperature;BMP_pressure;BME280_temperature;BME280_humidity;BME280_pressure;Samples;Min_cycle;Max_cycle;Signal;HPM_P1;HPM_P2
2022/08/14 00:01:14;;;;;;;8.35;4.90;;;;;;;24.92;38.02;99578.75;5005950;28;20094;-71
2022/08/14 00:03:39;;;;;;;5.68;4.72;;;;;;;24.87;38.69;99579.16;5017126;28;20036;-71
2022/08/14 00:06:05;;;;;;;5.55;4.40;;;;;;;24.86;38.54;99580.41;5022032;28;20048;-71
2022/08/14 00:08:30;;;;;;;6.68;4.85;;;;;;;24.80;38.83;99589.78;5019728;28;20049;-71
2022/08/14 00:10:56;;;;;;;8.02;4.90;;;;;;;24.68;40.97;99586.19;5015910;28;20516;-71
2022/08/14 00:13:23;;;;;;;5.63;4.22;;;;;;;24.63;39.21;99586.59;5008333;28;20389;-71
2022/08/14 00:15:50;;;;;;;5.53;4.50;;;;;;;24.63;39.59;99575.25;5003055;28;20033;-71
2022/08/14 00:18:20;;;;;;;6.20;4.60;;;;;;;24.55;41.15;99567.97;5022323;28;20032;-71
2022/08/14 00:20:46;;;;;;;5.05;4.28;;;;;;;24.52;39.73;99575.28;5021079;28;20463;-71
2022/08/14 00:23:12;;;;;;;5.93;3.97;;;;;;;24.48;40.29;99590.69;4979028;28;20078;-71
2022/08/14 00:25:38;;;;;;;4.53;3.60;;;;;;;24.44;41.06;99602.06;5030595;28;20029;-71
2022/08/14 00:28:04;;;;;;;7.22;4.50;;;;;;;24.33;42.65;99606.94;4996793;28;20025;-71
2022/08/14 00:30:29;;;;;;;9.90;4.07;;;;;;;24.28;41.52;99615.88;4989233;28;20039;-71
2022/08/14 00:32:55;;;;;;;5.13;3.90;;;;;;;24.30;42.57;99624.78;5021358;28;20566;-71
2022/08/14 00:35:20;;;;;;;8.13;4.10;;;;;;;24.24;43.53;99632.09;4990104;28;20037;-71
2022/08/14 00:37:46;;;;;;;8.25;4.28;;;;;;;24.17;46.28;99632.91;5003351;28;20044;-71
2022/08/14 00:40:13;;;;;;;6.60;3.90;;;;;;;24.15;44.82;99637.38;5004361;28;20036;-71
2022/08/14 00:42:39;;;;;;;8.20;3.92;;;;;;;24.14;44.95;99635.75;5005359;28;20036;-71
2022/08/14 00:45:06;;;;;;;5.75;3.88;;;;;;;24.13;45.03;99648.34;5002041;28;20378;-72
2022/08/14 00:47:31;;;;;;;7.40;3.90;;;;;;;24.09;46.35;99659.66;4978109;28;20063;-71
2022/08/14 00:49:57;;;;;;;5.60;4.30;;;;;;;24.05;48.05;99658.88;5033175;28;20038;-71
2022/08/14 00:52:22;;;;;;;6.05;3.88;;;;;;;24.07;45.80;99645.06;5018749;28;20025;-71
2022/08/14 00:54:53;;;;;;;5.55;4.20;;;;;;;24.06;46.30;99647.09;5053991;28;20393;-71
2022/08/14 00:57:22;;;;;;;6.63;4.43;;;;;;;24.04;48.29;99640.22;5011921;28;20036;-71
2022/08/14 00:59:48;;;;;;;6.65;4.00;;;;;;;24.05;47.63;99641.84;5024061;28;20033;-71
2022/08/14 01:02:15;;;;;;;5.20;4.40;;;;;;;24.06;47.85;99652.78;5016140;28;20109;-71
2022/08/14 01:04:40;;;;;;;6.57;5.22;;;;;;;24.00;50.43;99648.72;5003051;28;20060;-71
2022/08/14 01:07:06;;;;;;;7.68;5.88;;;;;;;24.02;49.97;99645.50;5054539;28;20044;-71
2022/08/14 01:09:32;;;;;;;8.10;5.80;;;;;;;24.04;52.03;99628.88;5039230;28;20060;-71
2022/08/14 01:11:57;;;;;;;7.60;5.78;;;;;;;23.97;50.70;99615.53;5030327;28;20037;-71
2022/08/14 01:14:23;;;;;;;6.00;5.00;;;;;;;24.02;51.16;99617.13;4998317;28;20032;-71
2022/08/14 01:16:48;;;;;;;5.57;4.82;;;;;;;24.02;51.17;99622.81;5036029;28;20059;-71
2022/08/14 01:21:58;;;;;;;9.52;6.10;;;;;;;23.97;52.92;99617.56;5022615;28;20107;-71
2022/08/14 01:24:24;;;;;;;7.32;6.60;;;;;;;24.00;55.58;99609.03;5000251;28;20033;-71
2022/08/14 01:26:50;;;;;;;9.40;6.25;;;;;;;24.00;52.71;99600.53;5018070;28;20509;-71
2022/08/14 01:29:16;;;;;;;7.65;5.80;;;;;;;24.02;55.75;99605.78;5011910;28;20033;-71
2022/08/14 01:31:45;;;;;;;8.55;5.95;;;;;;;24.00;51.89;99603.34;4991794;28;20393;-71
2022/08/14 01:34:10;;;;;;;6.53;5.82;;;;;;;24.01;53.82;99626.84;5001692;28;20044;-71
2022/08/14 01:36:36;;;;;;;8.63;5.10;;;;;;;24.01;52.05;99635.34;5033402;28;20033;-71
2022/08/14 01:39:22;;;;;;;6.45;5.28;;;;;;;23.99;54.17;99637.81;5057636;28;20433;-71
2022/08/14 01:41:51;;;;;;;9.18;6.10;;;;;;;24.02;54.77;99637.78;5006556;28;20502;-71
2022/08/14 01:44:17;;;;;;;6.82;5.35;;;;;;;24.00;53.74;99623.22;5014908;28;20039;-72
2022/08/14 01:46:46;;;;;;;9.65;5.03;;;;;;;23.98;52.77;99624.81;4981405;28;20025;-71
2022/08/14 01:49:14;;;;;;;8.15;5.38;;;;;;;23.99;55.93;99615.13;5008716;28;20119;-71
2022/08/14 01:51:40;;;;;;;7.80;5.22;;;;;;;24.03;54.42;99621.59;5016836;28;20037;-71
2022/08/14 01:54:12;;;;;;;7.43;4.90;;;;;;;23.97;54.73;99615.53;5044958;28;20029;-71
2022/08/14 01:56:38;;;;;;;7.97;5.20;;;;;;;23.98;54.45;99616.31;5028921;28;20025;-71
2022/08/14 01:59:21;;;;;;;8.20;4.78;;;;;;;23.93;54.19;99605.38;4986987;28;20036;-71
2022/08/14 02:01:47;;;;;;;;;;;;;;;23.92;54.67;99603.78;4998125;28;20029;-71
2022/08/14 02:04:12;;;;;;;6.78;5.00;;;;;;;23.88;54.37;99603.78;5002470;28;19920;-71
2022/08/14 02:06:38;;;;;;;8.55;5.00;;;;;;;23.84;54.41;99612.28;4995797;28;20374;-71
2022/08/14 02:09:04;;;;;;;9.55;5.00;;;;;;;23.81;55.86;99610.25;5015082;28;20038;-71
2022/08/14 02:11:29;;;;;;;5.95;4.85;;;;;;;23.79;55.95;99607.03;5005379;28;20094;-71
2022/08/14 02:13:58;;;;;;;7.20;4.68;;;;;;;23.71;54.70;99625.25;4987841;28;20029;-71
2022/08/14 02:16:28;;;;;;;7.10;5.38;;;;;;;23.68;56.64;99651.56;5028171;28;20033;-71
2022/08/14 02:18:58;;;;;;;7.15;5.30;;;;;;;23.63;57.59;99654.78;5013019;28;20025;-71
2022/08/14 02:21:24;;;;;;;7.78;5.93;;;;;;;23.53;59.08;99669.75;5016214;28;20080;-71
2022/08/14 02:23:50;;;;;;;9.70;5.80;;;;;;;23.48;61.19;99667.31;5001807;28;20029;-71
2022/08/14 02:26:24;;;;;;;11.40;7.15;;;;;;;23.36;59.54;99662.84;5026707;28;20041;-71
2022/08/14 02:28:51;;;;;;;8.95;6.40;;;;;;;23.37;63.98;99670.94;5028971;28;20498;-71
2022/08/14 02:31:17;;;;;;;9.30;7.53;;;;;;;23.32;65.88;99665.66;5032007;28;20448;-71
2022/08/14 02:33:43;;;;;;;9.02;7.32;;;;;;;23.17;67.99;99658.31;5015500;28;20108;-71
2022/08/14 02:36:09;;;;;;;9.30;6.40;;;;;;;23.11;65.79;99645.78;5020277;28;20033;-71
2022/08/14 02:38:35;;;;;;;9.57;7.30;;;;;;;23.09;68.46;99649.00;4988407;28;20121;-71
2022/08/14 02:41:01;;;;;;;6.95;6.07;;;;;;;23.02;66.96;99656.69;5018077;28;20044;-71
2022/08/14 02:43:30;;;;;;;8.93;6.38;;;;;;;23.04;67.80;99654.22;5029357;28;20466;-71
2022/08/14 02:45:57;;;;;;;9.90;6.35;;;;;;;23.00;65.32;99656.25;5019749;28;20450;-71
2022/08/14 02:48:26;;;;;;;6.90;5.85;;;;;;;22.96;65.09;99642.91;5019988;28;20414;-71
2022/08/14 02:50:51;;;;;;;7.18;6.18;;;;;;;22.92;63.95;99632.72;5003857;28;20029;-71
2022/08/14 02:53:17;;;;;;;10.75;7.68;;;;;;;22.85;68.90;99619.38;5024350;28;20439;-71
2022/08/14 02:55:43;;;;;;;10.00;7.40;;;;;;;22.77;66.61;99616.91;5031690;28;20092;-71
2022/08/14 02:58:08;;;;;;;10.38;7.00;;;;;;;22.78;68.91;99622.16;5017778;28;20037;-71
2022/08/14 03:00:34;;;;;;;10.32;6.93;;;;;;;22.76;67.46;99621.75;5024844;28;20030;-71
2022/08/14 03:03:01;;;;;;;10.68;7.22;;;;;;;22.72;67.16;99624.56;4993332;28;20021;-71
2022/08/14 03:05:30;;;;;;;10.13;6.75;;;;;;;22.74;67.28;99629.84;5029781;28;20040;-71
2022/08/14 03:08:12;;;;;;;9.90;7.68;;;;;;;22.67;66.37;99641.13;4983289;28;20061;-71
2022/08/14 03:10:37;;;;;;;11.93;6.55;;;;;;;22.65;67.06;99652.03;4999385;28;20029;-71
2022/08/14 03:13:03;;;;;;;10.02;6.53;;;;;;;22.62;67.31;99666.97;5009968;28;20048;-71
2022/08/14 03:15:53;;;;;;;15.15;7.03;;;;;;;22.64;67.47;99673.84;5008818;28;20064;-71
2022/08/14 03:18:17;;;;;;;11.77;6.47;;;;;;;22.61;68.71;99665.34;5003121;28;20617;-71
2022/08/14 03:20:43;;;;;;;11.15;7.38;;;;;;;22.56;68.72;99675.03;5033296;28;20045;-71
2022/08/14 03:23:08;;;;;;;10.40;6.97;;;;;;;22.50;69.13;99656.81;5026107;28;20041;-71
2022/08/14 03:25:34;;;;;;;10.82;7.07;;;;;;;22.47;69.75;99678.22;4988085;28;20041;-71
2022/08/14 03:28:05;;;;;;;12.45;7.32;;;;;;;22.45;70.92;99679.81;5013836;28;20055;-71
2022/08/14 03:30:31;;;;;;;9.98;6.32;;;;;;;22.37;70.90;99664.81;5033899;28;20033;-71
2022/08/14 03:32:57;;;;;;;13.60;7.25;;;;;;;22.33;72.17;99660.34;5035309;28;20032;-71
2022/08/14 03:35:23;;;;;;;12.82;7.30;;;;;;;22.22;72.46;99646.13;5020464;28;20110;-71
2022/08/14 03:37:51;;;;;;;10.45;6.70;;;;;;;22.15;69.91;99618.59;5027605;28;20033;-71
2022/08/14 03:40:19;;;;;;;12.10;7.32;;;;;;;22.06;71.92;99613.28;5032152;28;20105;-71
2022/08/14 03:42:44;;;;;;;8.30;6.20;;;;;;;22.03;69.88;99577.28;5035121;28;20030;-71
2022/08/14 03:45:10;;;;;;;8.82;5.57;;;;;;;22.04;69.84;99564.00;5029339;28;20049;-71
2022/08/14 03:47:39;;;;;;;7.43;5.75;;;;;;;22.01;70.30;99559.94;5024586;28;20033;-71
2022/08/14 03:50:08;;;;;;;11.45;5.78;;;;;;;21.96;68.77;99545.38;5031717;28;20044;-71
2022/08/14 03:52:34;;;;;;;11.32;5.80;;;;;;;21.99;69.59;99542.56;5031890;28;20048;-71
2022/08/14 03:55:00;;;;;;;10.82;5.55;;;;;;;21.93;71.03;99532.84;5050784;28;20071;-71
2022/08/14 03:57:29;;;;;;;8.30;5.90;;;;;;;21.91;70.24;99529.59;5016851;28;20029;-71
2022/08/14 03:59:54;;;;;;;13.07;5.85;;;;;;;21.85;70.17;99502.91;4996703;28;20033;-71
2022/08/14 04:02:21;;;;;;;9.68;5.65;;;;;;;21.85;69.66;99485.94;5011708;28;20026;-71
2022/08/14 04:04:46;;;;;;;9.55;5.20;;;;;;;21.87;71.26;99483.53;5034513;28;20033;-71
2022/08/14 04:07:12;;;;;;;13.15;5.90;;;;;;;21.83;70.20;99482.69;5033963;28;20033;-71
2022/08/14 04:09:37;;;;;;;6.70;4.88;;;;;;;21.86;69.67;99467.78;5026414;28;20091;-71
2022/08/14 04:12:04;;;;;;;9.18;5.78;;;;;;;21.80;68.79;99460.88;4994106;28;20390;-71
2022/08/14 04:14:29;;;;;;;9.95;5.90;;;;;;;21.75;70.59;99453.59;5014721;28;20029;-71
2022/08/14 04:16:55;;;;;;;10.70;5.70;;;;;;;21.71;70.24;99438.63;5033677;28;20535;-71
2022/08/14 04:19:22;;;;;;;8.35;5.43;;;;;;;21.69;68.99;99434.59;4995267;28;20068;-71
2022/08/14 04:21:49;;;;;;;10.57;5.18;;;;;;;21.66;69.84;99444.66;5012058;28;20032;-71
2022/08/14 04:24:16;;;;;;;8.40;4.90;;;;;;;21.66;69.49;99458.78;5047374;28;20033;-71
2022/08/14 04:26:43;;;;;;;9.38;4.88;;;;;;;21.61;69.69;99454.31;5051528;28;20039;-71
2022/08/14 04:29:11;;;;;;;7.93;5.25;;;;;;;21.62;71.57;99457.97;5056054;28;20408;-71
2022/08/14 04:31:37;;;;;;;7.75;5.00;;;;;;;21.58;70.26;99438.16;5026048;28;20026;-71
2022/08/14 04:34:04;;;;;;;9.93;4.97;;;;;;;21.57;70.57;99450.66;5027671;28;20555;-71
2022/08/14 04:36:30;;;;;;;10.63;5.43;;;;;;;21.55;69.81;99447.41;4997878;28;20068;-71
2022/08/14 04:44:23;;;;;;;8.90;5.20;;;;;;;21.53;69.99;99452.66;5030235;28;20029;-71
2022/08/14 04:49:35;;;;;;;8.38;4.93;;;;;;;21.52;70.59;99451.03;5025370;28;20237;-71
2022/08/14 04:52:03;;;;;;;10.93;5.32;;;;;;;21.51;69.65;99452.25;5028093;28;20026;-72
2022/08/14 04:54:29;;;;;;;9.50;4.95;;;;;;;21.51;69.52;99463.53;5009100;28;20029;-71
2022/08/14 04:56:54;;;;;;;9.93;5.25;;;;;;;21.50;69.00;99469.56;5012939;28;20036;-71
2022/08/14 04:59:20;;;;;;;12.48;5.50;;;;;;;21.44;69.39;99465.50;5049021;28;20029;-71
2022/08/14 05:01:46;;;;;;;9.43;5.45;;;;;;;21.43;71.07;99470.34;5021748;28;20067;-71
2022/08/14 05:04:11;;;;;;;12.15;5.65;;;;;;;21.33;72.00;99476.69;5015376;28;20529;-71
2022/08/14 05:06:38;;;;;;;9.48;4.93;;;;;;;21.32;71.15;99508.97;4995041;28;20417;-71
2022/08/14 05:09:04;;;;;;;9.40;5.10;;;;;;;21.33;71.12;99507.75;5032516;28;20033;-71
2022/08/14 05:11:32;;;;;;;11.18;5.55;;;;;;;21.30;71.80;99520.63;5039598;28;20052;-71
2022/08/14 05:13:58;;;;;;;11.13;5.20;;;;;;;21.26;71.99;99527.47;5005791;28;20381;-71
2022/08/14 05:16:28;;;;;;;9.68;5.95;;;;;;;21.25;71.85;99542.78;5044385;28;20029;-71
2022/08/14 05:18:54;;;;;;;7.93;5.53;;;;;;;21.23;72.11;99548.00;5047001;28;20036;-72
2022/08/14 05:21:20;;;;;;;8.75;6.00;;;;;;;21.23;72.18;99557.31;4987899;28;20103;-71
2022/08/14 05:23:45;;;;;;;9.27;5.70;;;;;;;21.24;71.60;99570.22;5021989;28;20048;-71
2022/08/14 05:26:16;;;;;;;9.32;5.50;;;;;;;21.25;71.84;99573.84;5048609;28;20026;-71
2022/08/14 05:28:44;;;;;;;8.25;5.70;;;;;;;21.23;71.58;99579.88;5012078;28;20041;-71
2022/08/14 05:31:11;;;;;;;8.70;5.88;;;;;;;21.22;71.56;99594.38;5018393;28;20037;-71
2022/08/14 05:33:37;;;;;;;9.45;6.20;;;;;;;21.23;71.68;99601.66;5008376;28;20039;-71
2022/08/14 05:36:04;;;;;;;11.18;6.15;;;;;;;21.19;72.68;99601.63;5058433;28;20029;-71
2022/08/14 05:38:32;;;;;;;10.85;6.50;;;;;;;21.20;72.12;99598.41;5024153;28;20029;-71
2022/08/14 05:40:59;;;;;;;10.13;6.72;;;;;;;21.16;72.51;99603.19;5015704;28;20043;-71
2022/08/14 05:43:25;;;;;;;10.43;6.95;;;;;;;21.15;73.10;99604.41;5049618;28;20045;-71
2022/08/14 05:45:50;;;;;;;15.23;8.60;;;;;;;21.16;74.34;99603.19;5056761;28;20098;-71
2022/08/14 05:48:16;;;;;;;10.55;6.70;;;;;;;21.18;72.93;99597.19;5024549;28;20029;-71
2022/08/14 05:50:41;;;;;;;9.68;6.15;;;;;;;21.17;72.31;99593.56;5024454;28;20036;-71
2022/08/14 05:53:07;;;;;;;11.48;7.00;;;;;;;21.27;71.58;99591.22;5029486;28;20048;-71
2022/08/14 05:55:32;;;;;;;8.30;6.43;;;;;;;21.23;72.39;99591.19;5021631;28;20436;-71
2022/08/14 05:58:00;;;;;;;10.10;6.57;;;;;;;21.24;72.96;99577.88;5006422;28;20017;-71
2022/08/14 06:00:30;;;;;;;9.07;6.32;;;;;;;21.18;71.28;99564.09;5048656;28;20040;-71
2022/08/14 06:02:57;;;;;;;11.50;7.07;;;;;;;21.26;71.64;99555.72;5053510;28;20497;-71
2022/08/14 06:05:23;;;;;;;10.85;6.50;;;;;;;21.25;71.52;99554.88;5019782;28;20055;-71
2022/08/14 06:07:49;;;;;;;7.68;6.72;;;;;;;21.26;71.90;99541.59;5023832;28;20489;-71
2022/08/14 06:10:14;;;;;;;12.25;6.65;;;;;;;21.28;71.68;99542.00;5013466;28;20033;-71
2022/08/14 06:12:40;;;;;;;8.75;6.18;;;;;;;21.26;71.24;99544.41;5008890;28;20029;-71
2022/08/14 06:15:06;;;;;;;10.13;7.15;;;;;;;21.26;72.60;99538.78;5022666;28;20025;-71
2022/08/14 06:17:41;;;;;;;9.98;6.55;;;;;;;21.28;71.22;99530.69;5033872;28;20057;-71
2022/08/14 06:20:07;;;;;;;9.88;6.68;;;;;;;21.28;71.54;99510.94;5023255;28;20091;-71
2022/08/14 06:22:32;;;;;;;11.00;6.50;;;;;;;21.30;71.50;99505.72;5028518;28;20394;-71
2022/08/14 06:24:57;;;;;;;7.32;5.78;;;;;;;21.27;71.53;99489.56;5048450;28;20036;-71
2022/08/14 06:27:23;;;;;;;10.88;6.82;;;;;;;21.28;72.15;99480.69;5031564;28;20025;-71
2022/08/14 06:29:48;;;;;;;9.23;6.28;;;;;;;21.29;71.95;99471.03;5021331;28;20029;-71
2022/08/14 06:32:14;;;;;;;11.93;6.60;;;;;;;21.31;71.60;99474.28;5033050;28;20036;-71
2022/08/14 06:34:40;;;;;;;9.00;6.28;;;;;;;21.29;71.68;99459.72;5011816;28;20044;-71
2022/08/14 06:37:05;;;;;;;6.57;5.82;;;;;;;21.31;71.65;99457.34;5011816;28;20053;-71
2022/08/14 06:39:32;;;;;;;8.98;6.10;;;;;;;21.26;71.26;99451.25;5053799;28;20500;-71
2022/08/14 06:41:58;;;;;;;7.65;5.95;;;;;;;21.27;71.50;99444.38;5055680;28;20103;-71
2022/08/14 06:44:24;;;;;;;7.60;5.68;;;;;;;21.30;72.42;99441.56;5029570;28;20554;-71
2022/08/14 06:46:49;;;;;;;7.07;5.97;;;;;;;21.28;72.65;99434.69;5015295;28;20021;-71
2022/08/14 06:49:15;;;;;;;9.20;6.28;;;;;;;21.30;72.20;99438.75;5039120;28;20036;-71
2022/08/14 06:51:45;;;;;;;9.35;5.50;;;;;;;21.31;71.60;99442.38;5033854;28;20063;-72
2022/08/14 06:54:12;;;;;;;8.00;5.97;;;;;;;21.35;72.61;99438.38;5054874;28;20033;-71
2022/08/14 06:56:37;;;;;;;7.15;5.65;;;;;;;21.37;72.40;99435.22;5040255;28;20029;-71
2022/08/14 06:59:03;;;;;;;9.40;6.10;;;;;;;21.39;72.31;99432.78;5018784;28;20036;-71
2022/08/14 07:06:57;;;;;;;8.23;6.18;;;;;;;21.44;72.94;99437.25;5014823;28;20465;-71
2022/08/14 07:09:23;;;;;;;7.78;6.07;;;;;;;21.46;73.22;99434.88;5024034;28;20033;-71
2022/08/14 07:11:49;;;;;;;8.68;5.85;;;;;;;21.43;72.99;99422.34;5050948;28;20025;-71
2022/08/14 07:14:14;;;;;;;10.05;6.00;;;;;;;21.49;73.94;99417.94;5017343;28;20465;-71
2022/08/14 07:16:40;;;;;;;9.80;5.95;;;;;;;21.51;74.16;99426.81;5022751;28;20029;-71
2022/08/14 07:19:07;;;;;;;6.25;5.47;;;;;;;21.53;74.09;99432.88;5015511;28;20037;-71
2022/08/14 07:21:33;;;;;;;7.88;5.65;;;;;;;21.57;73.28;99428.06;5047729;28;20063;-71
2022/08/14 07:23:58;;;;;;;7.53;5.80;;;;;;;21.58;73.08;99432.50;5048267;28;20474;-71
2022/08/14 07:26:24;;;;;;;8.60;6.40;;;;;;;21.58;75.25;99445.81;5037460;28;20044;-71
2022/08/14 07:28:49;;;;;;;8.18;5.68;;;;;;;21.55;72.78;99450.25;5002852;28;20052;-71
2022/08/14 07:31:15;;;;;;;8.65;5.68;;;;;;;21.57;72.90;99461.97;4974277;28;20034;-71
2022/08/14 07:33:47;;;;;;;8.57;5.70;;;;;;;21.61;73.46;99471.25;5044289;28;20486;-71
2022/08/14 07:36:13;;;;;;;6.53;5.35;;;;;;;21.61;73.89;99465.63;5022978;28;20463;-71
2022/08/14 07:38:42;;;;;;;11.60;6.68;;;;;;;21.61;75.96;99476.09;5017511;28;20029;-71
2022/08/14 07:41:09;;;;;;;9.18;5.90;;;;;;;21.59;74.81;99484.16;5028685;28;20366;-71
2022/08/14 07:43:35;;;;;;;7.85;6.20;;;;;;;21.60;74.46;99485.78;5042637;28;20033;-71
2022/08/14 07:46:01;;;;;;;8.77;6.63;;;;;;;21.59;77.43;99501.09;5022687;28;20029;-71
2022/08/14 07:48:27;;;;;;;9.80;7.25;;;;;;;21.55;79.52;99501.09;5056664;28;20448;-71
2022/08/14 07:50:53;;;;;;;10.75;7.05;;;;;;;21.51;78.96;99499.47;4988703;28;20024;-71
2022/08/14 07:53:19;;;;;;;8.77;7.40;;;;;;;21.50;78.49;99501.47;5021803;28;20026;-71
2022/08/14 07:55:47;;;;;;;8.65;6.47;;;;;;;21.46;78.22;99497.81;5030213;28;20033;-71
2022/08/14 07:58:13;;;;;;;8.02;6.03;;;;;;;21.46;76.46;99489.34;5048897;28;20477;-71
2022/08/14 08:00:39;;;;;;;9.75;6.45;;;;;;;21.46;76.75;99480.06;5019046;28;20051;-71
2022/08/14 08:03:07;;;;;;;8.65;5.72;;;;;;;21.45;75.72;99482.03;5019407;28;20036;-71
2022/08/14 08:05:33;;;;;;;9.15;5.80;;;;;;;21.43;75.84;99481.66;5027832;28;20029;-71
2022/08/14 08:07:58;;;;;;;10.90;5.97;;;;;;;21.45;75.19;99490.53;5027790;28;20044;-71
2022/08/14 08:10:30;;;;;;;8.90;6.13;;;;;;;21.45;74.87;99495.34;5000776;28;20041;-71
2022/08/14 08:13:04;;;;;;;10.73;6.33;;;;;;;21.45;74.40;99496.16;5028394;28;20048;-71
2022/08/14 08:15:31;;;;;;;8.50;5.88;;;;;;;21.46;74.74;99494.19;5008636;28;20282;-71
2022/08/14 08:18:03;;;;;;;8.05;5.93;;;;;;;21.42;74.94;99496.94;4995052;28;20064;-71
2022/08/14 08:20:28;;;;;;;9.10;5.85;;;;;;;21.45;74.98;99501.81;5022776;28;20515;-71
2022/08/14 08:22:57;;;;;;;7.13;5.75;;;;;;;21.43;74.50;99504.25;5054077;28;20033;-71
2022/08/14 08:25:23;;;;;;;8.20;5.97;;;;;;;21.47;74.61;99490.13;5033525;28;20104;-71
2022/08/14 08:28:01;;;;;;;8.98;5.65;;;;;;;21.45;74.50;99503.84;5024800;28;20103;-71
2022/08/14 08:30:27;;;;;;;8.88;5.70;;;;;;;21.50;74.82;99509.94;5026807;28;20637;-71
2022/08/14 08:32:54;;;;;;;7.68;6.15;;;;;;;21.51;74.29;99505.91;5021654;28;20017;-71
2022/08/14 08:35:22;;;;;;;9.45;5.82;;;;;;;21.49;74.35;99521.63;5036267;28;20029;-71
2022/08/14 08:37:48;;;;;;;10.43;5.97;;;;;;;21.52;74.81;99534.97;5021554;28;20025;-71
2022/08/14 08:40:22;;;;;;;7.57;5.68;;;;;;;21.49;74.88;99542.22;5041607;28;20036;-71
2022/08/14 08:42:48;;;;;;;9.27;5.90;;;;;;;21.49;74.32;99533.75;5017914;28;20032;-71
2022/08/14 08:45:15;;;;;;;6.78;5.63;;;;;;;21.48;74.35;99532.13;5056742;28;20029;-72
2022/08/14 08:47:40;;;;;;;8.18;5.72;;;;;;;21.49;74.51;99542.22;5025245;28;20032;-72
2022/08/14 08:50:23;;;;;;;7.07;6.03;;;;;;;21.49;74.46;99542.22;5038046;28;20025;-71
2022/08/14 08:52:50;;;;;;;6.90;5.35;;;;;;;21.48;74.37;99551.91;5031974;28;20033;-71
2022/08/14 08:55:23;;;;;;;9.30;6.25;;;;;;;21.49;74.24;99547.88;5056153;28;20095;-71
2022/08/14 08:57:52;;;;;;;;;;;;;;;21.49;74.90;99542.22;5040873;28;20033;-71
2022/08/14 09:00:18;;;;;;;9.38;6.05;;;;;;;21.52;74.05;99535.78;5049777;28;19909;-71
2022/08/14 09:03:03;;;;;;;9.55;6.07;;;;;;;21.54;74.30;99535.41;5031242;28;20036;-71
2022/08/14 09:05:29;;;;;;;8.88;6.35;;;;;;;21.53;75.32;99520.44;5034899;28;20041;-71
2022/08/14 09:08:18;;;;;;;8.75;6.35;;;;;;;21.54;75.25;99533.38;5038863;28;20336;-71
2022/08/14 09:10:45;;;;;;;7.82;6.20;;;;;;;21.55;74.95;99539.84;5022077;28;20036;-71
2022/08/14 09:13:11;;;;;;;9.80;6.25;;;;;;;21.56;74.84;99536.63;5012858;28;20037;-71
2022/08/14 09:15:46;;;;;;;8.70;6.80;;;;;;;21.59;74.95;99538.66;4998653;28;20030;-71
2022/08/14 09:18:13;;;;;;;7.65;6.28;;;;;;;21.60;75.37;99528.97;5022906;28;20025;-71
2022/08/14 09:20:39;;;;;;;9.07;7.65;;;;;;;21.61;74.46;99544.72;4988871;28;20049;-71
2022/08/14 09:23:08;;;;;;;9.05;6.95;;;;;;;21.59;75.44;99538.66;4978775;28;20041;-71
2022/08/14 09:25:34;;;;;;;9.23;8.32;;;;;;;21.60;78.92;99542.31;4989848;28;20148;-71
2022/08/14 09:28:02;;;;;;;10.70;8.20;;;;;;;21.59;77.76;99529.34;5030986;28;20049;-71
2022/08/14 09:30:28;;;;;;;10.13;7.20;;;;;;;21.60;76.88;99550.78;5024727;28;20039;-71
2022/08/14 09:33:02;;;;;;;7.18;6.35;;;;;;;21.58;75.46;99551.16;5014692;28;20017;-71
2022/08/14 09:36:02;;;;;;;8.43;6.90;;;;;;;21.59;75.75;99552.78;5018085;28;20038;-71
2022/08/14 09:39:12;;;;;;;9.57;7.50;;;;;;;21.58;78.02;99556.81;5014201;28;20072;-71
2022/08/14 09:42:03;;;;;;;10.48;8.98;;;;;;;21.57;79.15;99569.31;5031894;28;20382;-71
2022/08/14 09:44:47;;;;;;;9.13;7.18;;;;;;;21.52;78.78;99580.16;5030314;28;20039;-71
2022/08/14 09:47:13;;;;;;;10.18;8.73;;;;;;;21.51;80.69;99585.00;5019555;28;20044;-71
2022/08/14 09:49:41;;;;;;;13.13;10.43;;;;;;;21.51;81.34;99589.84;5021422;28;20544;-71
2022/08/14 09:52:09;;;;;;;13.52;9.70;;;;;;;21.46;81.73;99593.03;4996917;28;20087;-71
2022/08/14 09:54:38;;;;;;;11.35;8.82;;;;;;;21.47;80.79;99589.00;5032864;28;20052;-71
2022/08/14 09:57:05;;;;;;;10.02;7.95;;;;;;;21.47;79.57;99589.81;5027512;28;20029;-71
2022/08/14 09:59:39;;;;;;;16.08;11.57;;;;;;;21.38;84.50;99586.50;5028373;28;20551;-71
2022/08/14 10:02:20;;;;;;;12.65;11.35;;;;;;;21.31;86.18;99589.22;5034174;28;20439;-71
2022/08/14 10:04:47;;;;;;;14.63;10.18;;;;;;;21.33;84.80;99584.81;5041122;28;20039;-71
2022/08/14 10:07:13;;;;;;;12.02;10.38;;;;;;;21.30;86.51;99596.06;5053511;28;20358;-71
2022/08/14 10:09:47;;;;;;;12.75;9.20;;;;;;;21.32;85.13;99596.50;5001270;28;20039;-71
2022/08/14 10:12:12;;;;;;;12.50;9.20;;;;;;;21.34;85.17;99594.09;4999064;28;20032;-71
2022/08/14 10:14:39;;;;;;;9.88;8.90;;;;;;;21.35;84.41;99596.53;5021476;28;20037;-71
2022/08/14 10:17:06;;;;;;;11.93;9.02;;;;;;;21.35;85.87;99598.56;5037142;28;20030;-71
2022/08/14 10:19:33;;;;;;;13.10;10.32;;;;;;;21.31;87.45;99603.34;5008556;28;20137;-71
2022/08/14 10:22:09;;;;;;;12.27;10.90;;;;;;;21.29;86.46;99595.28;5047557;28;20038;-71
2022/08/14 10:24:45;;;;;;;12.90;10.18;;;;;;;21.29;88.14;99586.00;5036509;28;20101;-71
2022/08/14 10:27:24;;;;;;;12.38;11.07;;;;;;;21.27;89.70;99579.91;5021733;28;20036;-71
2022/08/14 10:29:53;;;;;;;11.80;9.95;;;;;;;21.26;88.90;99589.59;5045929;28;20036;-71
2022/08/14 10:32:21;;;;;;;11.50;8.55;;;;;;;21.30;86.96;99590.44;5016758;28;20029;-71
2022/08/14 10:34:47;;;;;;;11.85;8.90;;;;;;;21.31;87.68;99586.41;4984278;28;20033;-71
2022/08/14 10:37:13;;;;;;;10.55;6.90;;;;;;;21.37;85.27;99590.53;5022359;28;20028;-71
2022/08/14 10:39:39;;;;;;;11.23;7.60;;;;;;;21.41;83.67;99574.44;5054717;28;20543;-71
2022/08/14 10:42:06;;;;;;;9.68;7.30;;;;;;;21.42;84.72;99579.69;4990711;28;20481;-71
2022/08/14 10:44:34;;;;;;;8.95;8.05;;;;;;;21.39;85.80;99577.63;5020680;28;20037;-71
2022/08/14 10:47:02;;;;;;;14.63;9.50;;;;;;;21.40;87.36;99576.44;5036743;28;20420;-71
2022/08/14 10:49:27;;;;;;;10.93;8.82;;;;;;;21.39;86.77;99566.31;5022765;28;20059;-71
2022/08/14 10:52:05;;;;;;;11.75;10.63;;;;;;;21.45;87.66;99572.44;5048666;28;20408;-71
2022/08/14 10:54:39;;;;;;;10.98;9.88;;;;;;;21.41;88.78;99572.41;5018534;28;20517;-71
2022/08/14 10:57:14;;;;;;;11.60;10.50;;;;;;;21.38;89.18;99569.56;5034466;28;20033;-71
2022/08/14 10:59:45;;;;;;;11.73;10.25;;;;;;;21.39;89.16;99574.00;5047209;28;20021;-71
2022/08/14 11:02:16;;;;;;;10.80;9.05;;;;;;;21.44;87.88;99575.66;5056934;28;20493;-71
2022/08/14 11:04:41;;;;;;;9.07;7.20;;;;;;;21.49;85.23;99576.13;5031385;28;20033;-71
2022/08/14 11:07:13;;;;;;;9.90;7.82;;;;;;;21.54;84.40;99570.09;5032186;28;20078;-71
2022/08/14 11:09:39;;;;;;;9.70;7.20;;;;;;;21.57;83.22;99569.31;5051673;28;20045;-71
2022/08/14 11:12:04;;;;;;;9.25;7.35;;;;;;;21.63;83.99;99564.91;5020098;28;20409;-71
2022/08/14 11:14:30;;;;;;;12.48;9.63;;;;;;;21.68;84.42;99575.06;5039533;28;20025;-71
2022/08/14 11:16:56;;;;;;;14.98;11.40;;;;;;;21.67;88.15;99569.78;5029065;28;20047;-71
2022/08/14 11:19:22;;;;;;;12.50;9.27;;;;;;;21.69;86.54;99573.84;5030896;28;20028;-71
2022/08/14 11:21:48;;;;;;;13.57;10.45;;;;;;;21.73;87.58;99573.88;5021682;28;20507;-71
2022/08/14 11:24:13;;;;;;;12.98;10.77;;;;;;;21.73;87.69;99568.22;5030693;28;20030;-71
2022/08/14 11:26:39;;;;;;;13.50;10.75;;;;;;;21.75;87.95;99563.78;5009342;28;20034;-71
2022/08/14 11:29:04;;;;;;;15.23;11.43;;;;;;;21.76;88.00;99564.63;5016885;28;20032;-71
2022/08/14 11:31:30;;;;;;;12.43;10.43;;;;;;;21.79;88.13;99561.81;5032907;28;20025;-71
2022/08/14 11:33:56;;;;;;;13.25;11.77;;;;;;;21.79;88.50;99561.00;5020479;28;20032;-71
2022/08/14 11:36:25;;;;;;;13.85;10.50;;;;;;;21.81;87.44;99555.75;4995580;28;20021;-71
2022/08/14 11:38:50;;;;;;;12.55;9.43;;;;;;;21.84;87.23;99566.28;5006044;28;20389;-71
2022/08/14 11:41:16;;;;;;;13.55;10.80;;;;;;;21.84;87.67;99560.63;5004108;28;20036;-71
2022/08/14 11:43:46;;;;;;;15.00;11.48;;;;;;;21.81;88.94;99555.75;5051468;28;20485;-71
2022/08/14 11:46:12;;;;;;;13.60;10.80;;;;;;;21.83;87.99;99553.34;5052555;28;20406;-71
2022/08/14 11:48:45;;;;;;;13.40;11.07;;;;;;;21.82;88.50;99551.75;5015433;28;20039;-71